createdAt,value
2022-08-10T00:01:53.813Z,17.11
2022-08-10T00:04:24.125Z,17.08
2022-08-10T00:06:54.545Z,17.06
2022-08-10T00:09:24.682Z,17.04
2022-08-10T00:11:52.717Z,17.02
2022-08-10T00:14:20.669Z,17.02
2022-08-10T00:16:48.640Z,17.01
2022-08-10T00:19:18.200Z,17.00
2022-08-10T00:21:47.385Z,16.99
2022-08-10T00:24:15.552Z,16.98
2022-08-10T00:27:51.709Z,16.97
2022-08-10T00:29:31.497Z,16.95
2022-08-10T00:31:59.750Z,16.95
2022-08-10T00:34:28.767Z,16.94
2022-08-10T00:36:57.240Z,16.93
2022-08-10T00:39:26.072Z,16.91
2022-08-10T00:42:07.129Z,16.90
2022-08-10T00:44:40.657Z,16.88
2022-08-10T00:47:17.492Z,16.87
2022-08-10T00:49:57.451Z,16.84
2022-08-10T00:52:27.243Z,16.83
2022-08-10T00:54:55.089Z,16.82
2022-08-10T00:57:23.005Z,16.80
2022-08-10T00:59:59.642Z,16.80
2022-08-10T01:02:30.823Z,16.78
2022-08-10T01:05:09.551Z,16.77
2022-08-10T01:07:58.919Z,16.75
2022-08-10T01:10:34.779Z,16.74
2022-08-10T01:13:38.515Z,16.71
2022-08-10T01:16:26.373Z,16.72
2022-08-10T01:19:34.306Z,16.72
2022-08-10T01:22:26.774Z,16.71
2022-08-10T01:24:54.445Z,16.71
2022-08-10T01:27:29.224Z,16.72
2022-08-10T01:30:06.982Z,16.70
2022-08-10T01:33:06.737Z,16.69
2022-08-10T01:35:44.138Z,16.66
2022-08-10T01:38:17.299Z,16.65
2022-08-10T01:40:55.329Z,16.63
2022-08-10T01:43:25.360Z,16.60
2022-08-10T01:45:56.181Z,16.59
2022-08-10T01:48:31.993Z,16.57
2022-08-10T01:51:25.765Z,16.56
2022-08-10T01:54:03.589Z,16.55
2022-08-10T01:56:33.861Z,16.55
2022-08-10T01:59:04.655Z,16.56
2022-08-10T02:01:39.689Z,16.55
2022-08-10T02:04:10.265Z,16.54
2022-08-10T02:06:43.659Z,16.53
2022-08-10T02:09:21.272Z,16.50
2022-08-10T02:12:05.338Z,16.47
2022-08-10T02:14:57.559Z,16.44
2022-08-10T02:18:00.699Z,16.42
2022-08-10T02:20:20.334Z,16.38
2022-08-10T02:22:52.834Z,16.38
2022-08-10T02:25:41.951Z,16.36
2022-08-10T02:28:12.428Z,16.32
2022-08-10T02:30:57.607Z,16.29
2022-08-10T02:33:27.826Z,16.28
2022-08-10T02:35:57.429Z,16.26
2022-08-10T02:38:59.062Z,16.24
2022-08-10T02:45:14.588Z,16.22
2022-08-10T02:45:20.484Z,16.21
2022-08-10T02:47:46.594Z,16.21
2022-08-10T02:50:29.668Z,16.20
2022-08-10T02:53:10.171Z,16.20
2022-08-10T02:56:03.312Z,16.17
2022-08-10T02:58:57.618Z,16.14
2022-08-10T03:01:31.912Z,16.14
2022-08-10T03:04:03.107Z,16.12
2022-08-10T03:06:35.360Z,16.10
2022-08-10T03:09:07.723Z,16.09
2022-08-10T03:12:35.923Z,16.07
2022-08-10T03:14:25.465Z,16.06
2022-08-10T03:16:54.643Z,16.05
2022-08-10T03:20:35.674Z,16.03
2022-08-10T03:22:11.875Z,16.02
2022-08-10T03:24:39.883Z,16.02
2022-08-10T03:27:08.067Z,16.05
2022-08-10T03:30:29.627Z,16.07
2022-08-10T03:32:24.223Z,16.11
2022-08-10T03:34:53.821Z,16.16
2022-08-10T03:37:21.699Z,16.20
2022-08-10T03:39:51.351Z,16.24
2022-08-10T03:42:19.336Z,16.29
2022-08-10T03:44:50.540Z,16.34
2022-08-10T03:47:20.413Z,16.40
2022-08-10T03:49:48.955Z,16.47
2022-08-10T03:52:18.012Z,16.53
2022-08-10T03:54:45.932Z,16.59
2022-08-10T03:57:13.972Z,16.65
2022-08-10T03:59:41.757Z,16.72
2022-08-10T04:02:44.420Z,16.78
2022-08-10T04:04:57.309Z,16.86
2022-08-10T04:07:25.074Z,16.94
2022-08-10T04:09:55.021Z,17.02
2022-08-10T04:12:24.532Z,17.10
2022-08-10T04:14:53.689Z,17.19
2022-08-10T04:18:02.940Z,17.29
2022-08-10T04:20:19.543Z,17.42
2022-08-10T04:22:51.712Z,17.53
2022-08-10T04:25:21.427Z,17.64
2022-08-10T04:27:49.939Z,17.73
2022-08-10T04:30:17.780Z,17.81
2022-08-10T04:32:47.802Z,17.92
2022-08-10T04:35:19.350Z,18.05
2022-08-10T04:37:48.816Z,18.17
2022-08-10T04:40:28.354Z,18.25
2022-08-10T04:43:02.440Z,18.34
2022-08-10T04:45:48.612Z,18.41
2022-08-10T04:48:43.295Z,18.56
2022-08-10T04:51:17.602Z,18.73
2022-08-10T04:54:05.273Z,18.89
2022-08-10T04:56:36.813Z,19.05
2022-08-10T04:59:09.690Z,19.20
2022-08-10T05:02:22.664Z,19.35
2022-08-10T05:04:36.278Z,19.51
2022-08-10T05:07:16.671Z,19.65
2022-08-10T05:10:01.474Z,19.81
2022-08-10T05:12:36.911Z,20.01
2022-08-10T05:15:12.481Z,20.15
2022-08-10T05:18:03.280Z,20.32
2022-08-10T05:20:29.362Z,20.39
2022-08-10T05:22:57.460Z,20.46
2022-08-10T05:25:24.966Z,20.59
2022-08-10T05:27:52.638Z,20.72
2022-08-10T05:30:21.808Z,20.77
2022-08-10T05:32:55.294Z,20.81
2022-08-10T05:35:26.474Z,20.89
2022-08-10T05:38:09.004Z,21.04
2022-08-10T05:40:42.602Z,21.17
2022-08-10T05:43:17.211Z,21.34
2022-08-10T05:46:19.635Z,21.55
2022-08-10T05:48:41.560Z,21.77
2022-08-10T05:51:22.813Z,22.03
2022-08-10T05:54:01.983Z,22.27
2022-08-10T05:56:54.798Z,22.51
2022-08-10T06:00:30.970Z,22.63
2022-08-10T06:02:32.897Z,22.78
2022-08-10T06:04:55.776Z,22.96
2022-08-10T06:07:23.507Z,23.13
2022-08-10T06:09:59.379Z,23.27
2022-08-10T06:12:30.659Z,22.99
2022-08-10T06:15:06.014Z,22.58
2022-08-10T06:17:37.751Z,22.25
2022-08-10T06:20:05.939Z,22.35
2022-08-10T06:22:33.805Z,22.73
2022-08-10T06:27:49.377Z,23.29
2022-08-10T06:30:20.011Z,23.47
2022-08-10T06:32:51.967Z,23.65
2022-08-10T06:35:19.545Z,23.87
2022-08-10T06:37:51.529Z,24.04
2022-08-10T06:40:20.162Z,24.04
2022-08-10T06:42:48.482Z,23.69
2022-08-10T06:45:17.009Z,23.38
2022-08-10T06:47:51.872Z,23.14
2022-08-10T06:50:34.994Z,22.96
2022-08-10T06:53:14.560Z,22.85
2022-08-10T06:55:55.437Z,23.16
2022-08-10T06:58:26.900Z,23.74
2022-08-10T07:00:55.109Z,24.16
2022-08-10T07:03:23.872Z,24.54
2022-08-10T07:05:51.572Z,24.86
2022-08-10T07:08:19.943Z,24.92
2022-08-10T07:10:47.706Z,24.60
2022-08-10T07:13:15.908Z,24.24
2022-08-10T07:16:04.392Z,23.99
2022-08-10T07:18:31.951Z,23.84
2022-08-10T07:21:01.987Z,23.69
2022-08-10T07:23:57.923Z,23.60
2022-08-10T07:26:18.291Z,23.61
2022-08-10T07:28:48.072Z,23.62
2022-08-10T07:31:54.421Z,23.64
2022-08-10T07:34:06.681Z,23.65
2022-08-10T07:36:34.906Z,23.73
2022-08-10T07:39:03.008Z,23.91
2022-08-10T07:41:32.061Z,24.13
2022-08-10T07:44:00.057Z,24.22
2022-08-10T07:46:27.700Z,24.14
2022-08-10T07:48:59.059Z,24.07
2022-08-10T07:51:26.681Z,24.15
2022-08-10T07:53:54.294Z,24.37
2022-08-10T07:56:47.245Z,24.51
2022-08-10T07:59:11.044Z,24.59
2022-08-10T08:01:50.389Z,24.62
2022-08-10T08:04:18.797Z,24.78
2022-08-10T08:06:46.887Z,25.06
2022-08-10T08:09:14.585Z,25.35
2022-08-10T08:11:43.313Z,25.52
2022-08-10T08:14:11.550Z,25.64
2022-08-10T08:16:40.887Z,25.68
2022-08-10T08:19:26.851Z,25.60
2022-08-10T08:24:15.034Z,25.48
2022-08-10T08:24:44.474Z,25.44
2022-08-10T08:27:16.899Z,25.58
2022-08-10T08:29:46.737Z,25.55
2022-08-10T08:32:22.671Z,25.35
2022-08-10T08:34:57.982Z,25.15
2022-08-10T08:38:30.471Z,25.13
2022-08-10T08:40:17.318Z,25.14
2022-08-10T08:42:48.852Z,25.21
2022-08-10T08:45:35.489Z,25.36
2022-08-10T08:48:14.981Z,25.57
2022-08-10T08:50:57.353Z,25.77
2022-08-10T08:54:02.267Z,26.02
2022-08-10T08:56:25.493Z,26.41
2022-08-10T08:58:58.903Z,26.73
2022-08-10T09:01:40.231Z,27.06
2022-08-10T09:04:27.787Z,27.41
2022-08-10T09:08:00.393Z,28.18
2022-08-10T09:10:13.808Z,29.74
2022-08-10T09:12:50.707Z,31.77
2022-08-10T09:15:39.532Z,32.81
2022-08-10T09:18:11.432Z,33.45
2022-08-10T09:20:54.099Z,33.54
2022-08-10T09:24:01.398Z,33.29
2022-08-10T09:26:33.822Z,33.91
2022-08-10T09:29:12.734Z,34.97
2022-08-10T09:31:55.820Z,36.80
2022-08-10T09:36:24.759Z,39.97
2022-08-10T09:37:42.541Z,43.56
2022-08-10T09:41:00.449Z,46.29
2022-08-10T09:43:25.306Z,48.37
2022-08-10T09:46:13.000Z,49.30
2022-08-10T09:48:50.333Z,49.44
2022-08-10T09:51:44.396Z,50.18
2022-08-10T09:54:14.390Z,49.77
2022-08-10T09:57:24.568Z,49.97
2022-08-10T10:00:01.955Z,51.40
2022-08-10T10:02:55.542Z,52.87
2022-08-10T10:05:24.753Z,54.56
2022-08-10T10:08:06.413Z,55.98
2022-08-10T10:10:36.464Z,57.35
2022-08-10T10:13:18.117Z,58.33
2022-08-10T10:16:05.622Z,59.23
2022-08-10T10:18:40.580Z,59.78
2022-08-10T10:21:24.064Z,59.35
2022-08-10T10:24:22.980Z,56.54
2022-08-10T10:26:50.678Z,52.86
2022-08-10T10:29:58.629Z,49.36
2022-08-10T10:32:36.786Z,45.65
2022-08-10T10:35:24.675Z,42.95
2022-08-10T10:38:01.200Z,40.57
2022-08-10T10:40:45.536Z,38.58
2022-08-10T10:43:19.831Z,36.83
2022-08-10T10:45:50.964Z,35.61
2022-08-10T10:48:24.099Z,36.02
2022-08-10T10:51:07.171Z,38.20
2022-08-10T10:53:44.521Z,40.78
2022-08-10T10:56:15.415Z,42.60
2022-08-10T10:58:43.716Z,44.17
2022-08-10T11:01:18.718Z,45.23
2022-08-10T11:03:59.177Z,45.62
2022-08-10T11:06:45.663Z,44.31
2022-08-10T11:10:05.450Z,42.46
2022-08-10T11:12:19.731Z,40.26
2022-08-10T11:15:23.346Z,38.41
2022-08-10T11:18:17.400Z,36.83
2022-08-10T11:20:52.221Z,35.42
2022-08-10T11:23:37.138Z,34.74
2022-08-10T11:26:04.729Z,35.01
2022-08-10T11:29:03.746Z,35.15
2022-08-10T11:31:45.277Z,35.00
2022-08-10T11:34:46.792Z,34.49
2022-08-10T11:37:03.780Z,33.62
2022-08-10T11:39:34.903Z,32.64
2022-08-10T11:42:19.135Z,31.69
2022-08-10T11:44:54.114Z,30.80
2022-08-10T11:47:41.892Z,30.12
2022-08-10T11:50:31.779Z,29.38
2022-08-10T11:53:05.618Z,28.81
2022-08-10T11:55:33.696Z,28.30
2022-08-10T11:58:27.566Z,27.97
2022-08-10T12:01:02.139Z,27.88
2022-08-10T12:03:35.012Z,27.80
2022-08-10T12:06:03.038Z,27.55
2022-08-10T12:10:05.208Z,27.48
2022-08-10T12:11:24.632Z,27.53
2022-08-10T12:14:19.763Z,27.68
2022-08-10T12:16:45.380Z,27.63
2022-08-10T12:19:21.064Z,27.60
2022-08-10T12:21:54.063Z,27.67
2022-08-10T12:24:21.665Z,27.75
2022-08-10T12:26:56.252Z,27.84
2022-08-10T12:29:29.953Z,27.88
2022-08-10T12:32:07.865Z,27.75
2022-08-10T12:34:54.400Z,27.71
2022-08-10T12:37:40.637Z,27.76
2022-08-10T12:44:04.524Z,27.52
2022-08-10T12:45:57.455Z,27.44
2022-08-10T12:48:31.212Z,27.57
2022-08-10T12:51:06.888Z,27.80
2022-08-10T12:53:40.507Z,27.82
2022-08-10T12:56:08.571Z,27.86
2022-08-10T12:58:59.134Z,28.03
2022-08-10T13:02:06.218Z,28.00
2022-08-10T13:04:29.050Z,27.76
2022-08-10T13:06:57.796Z,27.48
2022-08-10T13:09:26.196Z,27.15
2022-08-10T13:12:35.583Z,26.80
2022-08-10T13:14:48.833Z,26.39
2022-08-10T13:17:21.474Z,26.12
2022-08-10T13:19:55.446Z,25.93
2022-08-10T13:22:25.706Z,25.79
2022-08-10T13:24:55.869Z,25.64
2022-08-10T13:28:01.466Z,25.59
2022-08-10T13:30:16.242Z,25.59
2022-08-10T13:32:48.498Z,25.56
2022-08-10T13:35:19.578Z,25.56
2022-08-10T13:37:47.467Z,25.61
2022-08-10T13:40:16.336Z,25.68
2022-08-10T13:42:44.288Z,25.75
2022-08-10T13:45:14.754Z,25.87
2022-08-10T13:47:49.676Z,25.98
2022-08-10T13:50:20.453Z,26.12
2022-08-10T13:52:51.056Z,26.29
2022-08-10T13:55:21.306Z,26.50
2022-08-10T13:57:49.492Z,26.60
2022-08-10T14:00:34.596Z,26.65
2022-08-10T14:03:06.300Z,26.72
2022-08-10T14:05:35.341Z,26.74
2022-08-10T14:08:03.212Z,26.84
2022-08-10T14:11:08.569Z,26.84
2022-08-10T14:13:25.338Z,26.83
2022-08-10T14:15:53.443Z,26.78
2022-08-10T14:18:21.463Z,26.66
2022-08-10T14:20:49.143Z,26.47
2022-08-10T14:23:16.734Z,26.23
2022-08-10T14:25:49.415Z,26.06
2022-08-10T14:28:18.564Z,25.87
2022-08-10T14:30:49.259Z,25.72
2022-08-10T14:33:16.868Z,25.66
2022-08-10T14:36:21.465Z,25.62
2022-08-10T14:38:33.613Z,25.54
2022-08-10T14:41:01.912Z,25.55
2022-08-10T14:43:38.578Z,25.63
2022-08-10T14:46:17.361Z,25.78
2022-08-10T14:48:47.848Z,25.93
2022-08-10T14:51:19.254Z,26.04
2022-08-10T14:53:50.907Z,26.07
2022-08-10T14:56:24.391Z,26.08
2022-08-10T14:58:59.126Z,26.16
2022-08-10T15:02:00.000Z,26.29
2022-08-10T15:04:26.863Z,26.42
2022-08-10T15:07:12.127Z,26.60
2022-08-10T15:10:00.373Z,26.83
2022-08-10T15:12:33.403Z,27.03
2022-08-10T15:15:01.306Z,27.25
2022-08-10T15:17:29.889Z,27.58
2022-08-10T15:20:14.362Z,27.74
2022-08-10T15:22:45.695Z,27.87
2022-08-10T15:25:19.194Z,27.84
2022-08-10T15:27:54.378Z,27.62
2022-08-10T15:30:29.962Z,27.26
2022-08-10T15:33:21.193Z,26.88
2022-08-10T15:36:25.473Z,26.40
2022-08-10T15:40:26.041Z,26.05
2022-08-10T15:42:11.319Z,25.70
2022-08-10T15:44:39.932Z,25.48
2022-08-10T15:47:21.460Z,25.29
2022-08-10T15:49:53.660Z,25.16
2022-08-10T15:52:39.524Z,25.05
2022-08-10T15:55:42.883Z,24.95
2022-08-10T15:58:07.688Z,24.88
2022-08-10T16:00:37.749Z,24.84
2022-08-10T16:03:24.945Z,24.83
2022-08-10T16:06:02.541Z,24.87
2022-08-10T16:08:56.374Z,24.88
2022-08-10T16:11:37.767Z,24.90
2022-08-10T16:14:13.680Z,24.89
2022-08-10T16:16:41.946Z,24.84
2022-08-10T16:19:22.394Z,24.80
2022-08-10T16:21:56.605Z,24.75
2022-08-10T16:24:24.481Z,24.70
2022-08-10T16:26:52.548Z,24.69
2022-08-10T16:29:21.903Z,24.67
2022-08-10T16:31:51.729Z,24.65
2022-08-10T16:34:19.319Z,24.59
2022-08-10T16:36:56.854Z,24.52
2022-08-10T16:39:57.987Z,24.43
2022-08-10T16:42:17.764Z,24.35
2022-08-10T16:44:57.305Z,24.26
2022-08-10T16:47:27.497Z,24.16
2022-08-10T16:49:56.007Z,24.07
2022-08-10T16:52:29.272Z,23.96
2022-08-10T16:54:57.611Z,23.90
2022-08-10T16:57:26.589Z,23.85
2022-08-10T16:59:54.163Z,23.80
2022-08-10T17:02:21.784Z,23.74
2022-08-10T17:06:01.706Z,23.66
2022-08-10T17:08:10.473Z,23.54
2022-08-10T17:10:38.116Z,23.43
2022-08-10T17:13:06.248Z,23.32
2022-08-10T17:15:34.255Z,23.21
2022-08-10T17:18:02.931Z,23.09
2022-08-10T17:20:32.870Z,22.95
2022-08-10T17:23:01.771Z,22.83
2022-08-10T17:25:48.309Z,22.70
2022-08-10T17:28:35.554Z,22.56
2022-08-10T17:31:23.555Z,22.43
2022-08-10T17:33:59.987Z,22.29
2022-08-10T17:36:33.492Z,22.16
2022-08-10T17:39:01.025Z,22.02
2022-08-10T17:41:29.517Z,21.89
2022-08-10T17:44:03.047Z,21.75
2022-08-10T17:46:32.398Z,21.60
2022-08-10T17:49:00.470Z,21.46
2022-08-10T17:51:30.924Z,21.31
2022-08-10T17:53:58.933Z,21.17
2022-08-10T17:56:26.595Z,21.01
2022-08-10T17:58:56.536Z,20.87
2022-08-10T18:01:40.711Z,20.72
2022-08-10T18:04:13.301Z,20.55
2022-08-10T18:06:41.341Z,20.41
2022-08-10T18:09:11.436Z,20.27
2022-08-10T18:11:42.693Z,20.12
2022-08-10T18:14:10.281Z,19.98
2022-08-10T18:16:41.819Z,19.84
2022-08-10T18:19:12.057Z,19.69
2022-08-10T18:21:40.409Z,19.55
2022-08-10T18:24:27.162Z,19.41
2022-08-10T18:26:54.725Z,19.27
2022-08-10T18:29:24.803Z,19.12
2022-08-10T18:31:56.572Z,18.98
2022-08-10T18:34:24.156Z,18.85
2022-08-10T18:36:52.168Z,18.72
2022-08-10T18:39:29.989Z,18.59
2022-08-10T18:42:04.975Z,18.47
2022-08-10T18:44:37.419Z,18.33
2022-08-10T18:47:07.030Z,18.20
2022-08-10T18:49:37.576Z,18.09
2022-08-10T18:52:08.616Z,17.98
2022-08-10T18:54:39.489Z,17.88
2022-08-10T18:57:22.735Z,17.76
2022-08-10T19:00:03.599Z,17.66
2022-08-10T19:02:36.067Z,17.54
2022-08-10T19:05:30.218Z,17.45
2022-08-10T19:08:30.074Z,17.33
2022-08-10T19:10:58.580Z,17.22
2022-08-10T19:13:32.766Z,17.14
2022-08-10T19:16:09.316Z,17.04
2022-08-10T19:18:46.862Z,16.95
2022-08-10T19:21:17.366Z,16.85
2022-08-10T19:23:53.813Z,16.73
2022-08-10T19:26:44.270Z,16.64
2022-08-10T19:30:11.666Z,16.55
2022-08-10T19:32:21.061Z,16.46
2022-08-10T19:35:07.254Z,16.38
2022-08-10T19:37:37.502Z,16.30
2022-08-10T19:40:06.209Z,16.23
2022-08-10T19:42:48.678Z,16.16
2022-08-10T19:45:55.878Z,16.09
2022-08-10T19:48:26.116Z,16.01
2022-08-10T19:50:56.317Z,15.94
2022-08-10T19:53:36.067Z,15.88
2022-08-10T19:56:32.700Z,15.81
2022-08-10T19:59:03.425Z,15.74
2022-08-10T20:01:54.478Z,15.68
2022-08-10T20:04:22.863Z,15.60
2022-08-10T20:07:14.374Z,15.55
2022-08-10T20:10:02.477Z,15.81
2022-08-10T20:12:48.271Z,16.50
2022-08-10T20:15:21.065Z,17.00
2022-08-10T20:17:55.265Z,17.34
2022-08-10T20:20:29.174Z,17.59
2022-08-10T20:23:10.238Z,17.79
2022-08-10T20:25:38.134Z,17.99
2022-08-10T20:28:13.439Z,18.14
2022-08-10T20:30:55.998Z,18.27
2022-08-10T20:33:28.348Z,18.38
2022-08-10T20:36:25.398Z,18.47
2022-08-10T20:39:11.692Z,18.56
2022-08-10T20:42:06.172Z,18.64
2022-08-10T20:44:53.859Z,18.69
2022-08-10T20:47:24.338Z,18.73
2022-08-10T20:50:10.955Z,18.76
2022-08-10T20:52:38.562Z,18.77
2022-08-10T20:55:08.635Z,18.77
2022-08-10T20:57:54.709Z,18.77
2022-08-10T21:00:24.588Z,18.77
2022-08-10T21:03:15.884Z,18.74
2022-08-10T21:05:54.816Z,18.49
2022-08-10T21:08:30.763Z,17.86
2022-08-10T21:11:12.058Z,17.32
2022-08-10T21:13:58.318Z,16.88
2022-08-10T21:16:47.342Z,16.51
2022-08-10T21:19:34.110Z,16.19
2022-08-10T21:22:01.771Z,15.92
2022-08-10T21:24:31.770Z,15.72
2022-08-10T21:27:33.590Z,15.54
2022-08-10T21:30:11.256Z,15.34
2022-08-10T21:32:51.217Z,15.18
2022-08-10T21:35:36.633Z,15.03
2022-08-10T21:38:28.462Z,14.87
2022-08-10T21:41:17.615Z,14.73
2022-08-10T21:44:05.061Z,14.60
2022-08-10T21:46:55.335Z,14.48
2022-08-10T21:49:45.426Z,14.36
2022-08-10T21:52:39.188Z,14.26
2022-08-10T21:55:57.450Z,14.15
2022-08-10T21:58:45.170Z,14.05
2022-08-10T22:01:39.488Z,13.97
2022-08-10T22:04:26.730Z,13.89
2022-08-10T22:07:12.974Z,13.81
2022-08-10T22:10:01.680Z,13.74
2022-08-10T22:13:00.051Z,13.74
2022-08-10T22:16:10.718Z,14.36
2022-08-10T22:19:01.836Z,15.06
2022-08-10T22:21:53.187Z,15.52
2022-08-10T22:24:41.310Z,15.84
2022-08-10T22:27:47.091Z,16.10
2022-08-10T22:30:43.823Z,16.32
2022-08-10T22:33:36.834Z,16.48
2022-08-10T22:36:22.873Z,16.63
2022-08-10T22:39:13.436Z,16.74
2022-08-10T22:42:32.334Z,16.86
2022-08-10T22:45:38.759Z,16.97
2022-08-10T22:48:25.535Z,17.03
2022-08-10T22:50:54.508Z,17.08
2022-08-10T22:53:47.320Z,17.11
2022-08-10T22:56:36.350Z,17.16
2022-08-10T22:59:04.639Z,17.20
2022-08-10T23:02:07.858Z,17.22
2022-08-10T23:04:52.810Z,17.25
2022-08-10T23:07:21.849Z,17.27
2022-08-10T23:09:57.569Z,17.28
2022-08-10T23:12:29.773Z,17.29
2022-08-10T23:15:16.548Z,17.29
2022-08-10T23:18:06.555Z,17.28
2022-08-10T23:20:35.358Z,17.28
2022-08-10T23:23:07.565Z,17.26
2022-08-10T23:25:56.234Z,17.25
2022-08-10T23:28:58.112Z,17.22
2022-08-10T23:31:13.944Z,17.20
2022-08-10T23:33:41.483Z,17.18
2022-08-10T23:36:34.656Z,17.18
2022-08-10T23:39:26.526Z,17.17
2022-08-10T23:41:46.727Z,17.17
2022-08-10T23:44:21.232Z,17.16
2022-08-10T23:46:48.860Z,17.15
2022-08-10T23:49:16.411Z,17.14
2022-08-10T23:51:56.281Z,17.13
2022-08-10T23:54:24.899Z,17.10
2022-08-10T23:57:01.089Z,17.08
2022-08-10T23:59:29.749Z,17.06
